Time;durP1;ratioP1;P1;durP2;ratioP2;P2;SDS_P1;SDS_P2;PMS_P1;PMS_P2;Temp;Humidity;BMP_temperature;BMP_pressure;BME280_temperature;BME280_humidity;BME280_pressure;Samples;Min_cycle;Max_cycle;Signal;HPM_P1;HPM_P2
2023/04/08 00:00:49;;;;;;;;;;;;;;;1.04;76.37;102794.63;5074124;28;20057;-72
2023/04/08 00:03:15;;;;;;;;;;;;;;;1.02;76.33;102792.06;5074591;28;19916;-72
2023/04/08 00:05:40;;;;;;;;;;;;;;;0.98;77.41;102789.59;5057433;28;20288;-74
2023/04/08 00:08:06;;;;;;;;;;;;;;;0.96;77.45;102791.41;5074018;28;19913;-73
2023/04/08 00:10:31;;;;;;;;;;;;;;;0.90;77.91;102789.84;5039252;28;19919;-74
2023/04/08 00:12:56;;;;;;;;;;;;;;;0.88;78.70;102789.91;5074484;28;20023;-73
2023/04/08 00:15:22;;;;;;;;;;;;;;;0.87;78.28;102792.59;5077838;28;19912;-73
2023/04/08 00:17:47;;;;;;;;;;;;;;;0.85;78.56;102789.97;5085381;28;19912;-73
2023/04/08 00:20:12;;;;;;;;;;;;;;;0.85;78.99;102794.38;5067095;28;20330;-72
2023/04/08 00:22:41;;;;;;;;;;;;;;;0.82;79.20;102795.31;5085347;28;19919;-74
2023/04/08 00:25:08;;;;;;;;;;;;;;;0.82;79.39;102790.09;5084926;28;19912;-72
2023/04/08 00:27:33;;;;;;;;;;;;;;;0.83;78.67;102793.56;5066271;28;19946;-72
2023/04/08 00:29:59;;;;;;;;;;;;;;;0.82;79.09;102794.47;5082947;28;19912;-71
2023/04/08 00:32:24;;;;;;;;;;;;;;;0.80;78.94;102791.91;5079345;28;19916;-73
2023/04/08 00:34:50;;;;;;;;;;;;;;;0.77;79.29;102792.00;5074551;28;19963;-74
2023/04/08 00:37:16;;;;;;;;;;;;;;;0.76;79.58;102789.44;5074158;28;19912;-73
2023/04/08 00:39:41;;;;;;;;;;;;;;;0.76;79.15;102794.69;5073849;28;20245;-75
2023/04/08 00:42:07;;;;;;;;;;;;;;;0.76;79.15;102797.31;5074681;28;20059;-72
2023/04/08 00:44:32;;;;;;;;;;;;;;;0.73;80.18;102795.63;5056891;28;19927;-73
2023/04/08 00:46:57;;;;;;;;;;;;;;;0.71;79.90;102797.47;5039852;28;19913;-73
2023/04/08 00:49:23;;;;;;;;;;;;;;;0.70;80.35;102794.88;5076317;28;19917;-73
2023/04/08 00:51:48;;;;;;;;;;;;;;;0.69;80.08;102799.28;5073725;28;20000;-73
2023/04/08 00:54:14;;;;;;;;;;;;;;;0.67;80.61;102795.84;5073703;28;20364;-73
2023/04/08 00:56:39;;;;;;;;;;;;;;;0.67;80.44;102800.22;5073842;28;19963;-73
2023/04/08 00:59:05;;;;;;;;;;;;;;;0.66;80.46;102788.03;5073130;28;19923;-76
2023/04/08 01:01:36;;;;;;;;;;;;;;;0.64;80.28;102795.94;5056087;28;19997;-75
2023/04/08 01:04:21;;;;;;;;;;;;;;;0.61;80.75;102791.66;5073765;28;19920;-72
2023/04/08 01:07:07;;;;;;;;;;;;;;;0.59;80.76;102793.47;5073520;28;19924;-74
2023/04/08 01:09:34;;;;;;;;;;;;;;;0.58;81.09;102790.91;5072789;28;19935;-75
2023/04/08 01:12:02;;;;;;;;;;;;;;;0.59;81.03;102795.25;5074681;28;19999;-73
2023/04/08 01:14:30;;;;;;;;;;;;;;;0.58;81.13;102790.91;5082121;28;20451;-71
2023/04/08 01:16:56;;;;;;;;;;;;;;;0.56;81.72;102790.06;5082949;28;19913;-73
2023/04/08 01:19:26;;;;;;;;;;;;;;;0.55;81.94;102788.34;5081055;28;19917;-73
2023/04/08 01:21:53;;;;;;;;;;;;;;;0.53;81.71;102777.06;5079072;28;19975;-74
2023/04/08 01:24:25;;;;;;;;;;;;;;;0.52;81.57;102784.06;5084119;28;19912;-72
2023/04/08 01:26:50;;;;;;;;;;;;;;;0.52;81.51;102781.44;5085612;28;19984;-71
2023/04/08 01:29:16;;;;;;;;;;;;;;;0.51;81.41;102778.88;5083243;28;19913;-73
2023/04/08 01:31:41;;;;;;;;;;;;;;;0.51;81.52;102784.13;5075506;28;19918;-76
2023/04/08 01:34:07;;;;;;;;;;;;;;;0.48;81.06;102776.34;5079676;28;20391;-73
2023/04/08 01:36:34;;;;;;;;;;;;;;;0.44;81.80;102777.34;5078184;28;19913;-75
2023/04/08 01:39:01;;;;;;;;;;;;;;;0.43;81.68;102775.66;5073794;28;19919;-72
2023/04/08 01:41:28;;;;;;;;;;;;;;;0.41;82.10;102772.22;5074633;28;19935;-76
2023/04/08 01:43:54;;;;;;;;;;;;;;;0.39;82.45;102768.78;5073792;28;20024;-73
2023/04/08 01:46:19;;;;;;;;;;;;;;;0.37;82.31;102775.84;5073056;28;19912;-74
2023/04/08 01:48:45;;;;;;;;;;;;;;;0.36;82.47;102771.50;5075329;28;20414;-74
2023/04/08 01:51:11;;;;;;;;;;;;;;;0.34;82.54;102783.81;5074880;28;19913;-74
2023/04/08 01:53:36;;;;;;;;;;;;;;;0.33;82.15;102780.31;5075117;28;20473;-74
2023/04/08 01:56:07;;;;;;;;;;;;;;;0.30;82.94;102777.81;5079865;28;19940;-72
2023/04/08 01:58:42;;;;;;;;;;;;;;;0.28;82.72;102775.19;5082053;28;19912;-73
2023/04/08 02:01:13;;;;;;;;;;;;;;;0.27;82.85;102775.25;5083759;28;19920;-73
2023/04/08 02:03:40;;;;;;;;;;;;;;;0.24;83.12;102770.97;5078033;28;19923;-75
2023/04/08 02:06:05;;;;;;;;;;;;;;;0.23;83.49;102771.88;5072789;28;19923;-75
2023/04/08 02:08:32;;;;;;;;;;;;;;;0.20;83.37;102774.59;5072392;28;20275;-76
2023/04/08 02:10:57;;;;;;;;;;;;;;;0.18;83.38;102765.91;5072448;28;20269;-75
2023/04/08 02:13:23;;;;;;;;;;;;;;;0.18;83.27;102770.31;5072532;28;19970;-74
2023/04/08 02:15:52;;;;;;;;;;;;;;;0.17;83.62;102769.44;5072623;28;19960;-71
2023/04/08 02:18:23;;;;;;;;;;;;;;;0.16;83.55;102765.09;5078948;28;19959;-72
2023/04/08 02:20:56;;;;;;;;;;;;;;;0.14;83.57;102766.91;5078341;28;19907;-74
2023/04/08 02:23:28;;;;;;;;;;;;;;;0.13;83.58;102773.06;5083981;28;19920;-74
2023/04/08 02:25:54;;;;;;;;;;;;;;;0.11;83.58;102769.63;5078917;28;19912;-73
2023/04/08 02:28:20;;;;;;;;;;;;;;;0.09;83.87;102763.59;5076365;28;19918;-74
2023/04/08 02:30:52;;;;;;;;;;;;;;;0.07;84.24;102762.78;5056773;28;20019;-74
2023/04/08 02:33:21;;;;;;;;;;;;;;;0.07;84.34;102768.00;5074022;28;19913;-76
2023/04/08 02:35:48;;;;;;;;;;;;;;;0.07;84.28;102767.16;5077186;28;19912;-72
2023/04/08 02:38:13;;;;;;;;;;;;;;;0.04;85.10;102762.88;5076301;28;19952;-77
2023/04/08 02:40:39;;;;;;;;;;;;;;;0.02;85.20;102759.44;5057749;28;19951;-74
2023/04/08 02:43:04;;;;;;;;;;;;;;;0.00;85.20;102763.88;5075855;28;19917;-73
2023/04/08 02:45:30;;;;;;;;;;;;;;;-0.02;85.46;102763.03;5075852;28;19919;-71
2023/04/08 02:47:56;;;;;;;;;;;;;;;-0.04;85.34;102757.84;5075809;28;20003;-74
2023/04/08 02:50:21;;;;;;;;;;;;;;;-0.04;85.60;102759.59;5075693;28;19952;-74
2023/04/08 02:52:47;;;;;;;;;;;;;;;-0.05;85.67;102753.50;5075680;28;19913;-73
2023/04/08 02:55:12;;;;;;;;;;;;;;;-0.04;85.82;102759.59;5075267;28;19962;-75
2023/04/08 02:57:38;;;;;;;;;;;;;;;-0.04;85.63;102767.47;5075443;28;20058;-73
2023/04/08 03:00:04;;;;;;;;;;;;;;;-0.06;85.98;102761.41;5075191;28;19960;-76
2023/04/08 03:02:29;;;;;;;;;;;;;;;-0.03;85.66;102761.31;5057861;28;19998;-76
2023/04/08 03:04:55;;;;;;;;;;;;;;;-0.04;85.80;102759.59;5075366;28;19916;-72
2023/04/08 03:07:20;;;;;;;;;;;;;;;-0.04;85.97;102755.22;5075443;28;19913;-75
2023/04/08 03:09:45;;;;;;;;;;;;;;;-0.03;86.08;102756.06;5075780;28;20477;-75
2023/04/08 03:12:10;;;;;;;;;;;;;;;-0.03;86.12;102751.69;5075404;28;19920;-73
2023/04/08 03:14:36;;;;;;;;;;;;;;;-0.02;86.59;102756.03;5075393;28;19923;-75
2023/04/08 03:17:01;;;;;;;;;;;;;;;-0.01;85.42;102754.25;5057310;28;19947;-73
2023/04/08 03:19:26;;;;;;;;;;;;;;;0.01;85.55;102752.50;5075825;28;19912;-73
2023/04/08 03:21:52;;;;;;;;;;;;;;;0.02;85.29;102751.59;5076187;28;19913;-75
2023/04/08 03:24:17;;;;;;;;;;;;;;;0.02;85.60;102748.97;5074938;28;20035;-75
2023/04/08 03:26:44;;;;;;;;;;;;;;;0.02;85.86;102748.97;5056922;28;19916;-75
2023/04/08 03:29:09;;;;;;;;;;;;;;;0.04;85.62;102752.41;5078663;28;19912;-74
2023/04/08 03:31:35;;;;;;;;;;;;;;;0.06;85.67;102760.19;5076369;28;19936;-76
2023/04/08 03:34:00;;;;;;;;;;;;;;;0.06;86.01;102755.81;5076261;28;20391;-75
2023/04/08 03:36:26;;;;;;;;;;;;;;;0.05;86.41;102754.09;5075103;28;20018;-73
2023/04/08 03:38:51;;;;;;;;;;;;;;;0.07;86.78;102756.69;5056735;28;20062;-74
2023/04/08 03:41:17;;;;;;;;;;;;;;;0.09;86.99;102750.47;5056543;28;20041;-72
2023/04/08 03:43:45;;;;;;;;;;;;;;;0.11;86.93;102751.28;5076662;28;19919;-72
2023/04/08 03:46:14;;;;;;;;;;;;;;;0.14;87.04;102756.44;5077369;28;20371;-74
2023/04/08 03:48:39;;;;;;;;;;;;;;;0.14;86.90;102759.06;5078807;28;19920;-72
2023/04/08 03:51:05;;;;;;;;;;;;;;;0.16;86.60;102757.25;5075033;28;19914;-74
2023/04/08 03:53:31;;;;;;;;;;;;;;;0.20;86.99;102763.25;5039826;28;19919;-78
2023/04/08 03:56:03;;;;;;;;;;;;;;;0.22;86.66;102764.91;5041960;28;19932;-77
2023/04/08 03:58:28;;;;;;;;;;;;;;;0.28;86.45;102762.09;5074357;28;19916;-73
2023/04/08 04:00:54;;;;;;;;;;;;;;;0.34;86.02;102762.84;5075804;28;19923;-74
2023/04/08 04:03:20;;;;;;;;;;;;;;;0.37;86.58;102760.13;5058984;28;19974;-75
2023/04/08 04:05:45;;;;;;;;;;;;;;;0.38;86.06;102761.81;5074392;28;19917;-75
2023/04/08 04:08:11;;;;;;;;;;;;;;;0.41;85.79;102759.09;5040489;28;19916;-76
2023/04/08 04:10:38;;;;;;;;;;;;;;;0.45;86.22;102763.34;5059255;28;20380;-77
2023/04/08 04:13:04;;;;;;;;;;;;;;;0.49;85.48;102762.34;5057091;28;19919;-75
2023/04/08 04:15:30;;;;;;;;;;;;;;;0.52;85.31;102764.84;5056028;28;19920;-75
2023/04/08 04:17:55;;;;;;;;;;;;;;;0.52;85.82;102759.63;5073919;28;19913;-74
2023/04/08 04:20:20;;;;;;;;;;;;;;;0.51;85.38;102768.38;5057915;28;19995;-75
2023/04/08 04:22:46;;;;;;;;;;;;;;;0.50;85.46;102766.66;5056902;28;19919;-73
2023/04/08 04:25:11;;;;;;;;;;;;;;;0.52;85.40;102770.09;5056467;28;19918;-76
2023/04/08 04:27:38;;;;;;;;;;;;;;;0.57;85.58;102765.56;5077530;28;19919;-72
2023/04/08 04:30:03;;;;;;;;;;;;;;;0.61;85.27;102759.34;5065252;28;20019;-72
2023/04/08 04:32:29;;;;;;;;;;;;;;;0.64;83.18;102764.47;5077161;28;19913;-75
2023/04/08 04:34:54;;;;;;;;;;;;;;;0.69;82.72;102765.19;5060709;28;19913;-76
2023/04/08 04:37:20;;;;;;;;;;;;;;;0.72;82.13;102766.84;5055767;28;20444;-76
2023/04/08 04:39:46;;;;;;;;;;;;;;;0.75;82.36;102770.22;5039442;28;19913;-78
2023/04/08 04:42:12;;;;;;;;;;;;;;;0.77;82.71;102768.41;5055770;28;19912;-75
2023/04/08 04:44:38;;;;;;;;;;;;;;;0.81;82.58;102766.53;5055629;28;20344;-72
2023/04/08 04:47:03;;;;;;;;;;;;;;;0.83;82.46;102760.31;5055758;28;19917;-74
2023/04/08 04:49:29;;;;;;;;;;;;;;;0.86;81.47;102760.22;5055330;28;19912;-72
2023/04/08 04:51:55;;;;;;;;;;;;;;;0.95;80.79;102769.56;5055615;28;20007;-75
2023/04/08 04:54:20;;;;;;;;;;;;;;;1.04;80.05;102768.38;5056768;28;19960;-74
2023/04/08 04:56:46;;;;;;;;;;;;;;;1.15;79.32;102761.00;5076028;28;19917;-75
2023/04/08 04:59:12;;;;;;;;;;;;;;;1.22;78.38;102762.50;5077650;28;19913;-75
2023/04/08 05:01:39;;;;;;;;;;;;;;;1.29;77.92;102758.75;5079348;28;19962;-73
2023/04/08 05:04:06;;;;;;;;;;;;;;;1.36;77.78;102754.13;5055462;28;20372;-75
2023/04/08 05:06:31;;;;;;;;;;;;;;;1.42;77.58;102754.75;5078606;28;19916;-74
2023/04/08 05:08:57;;;;;;;;;;;;;;;1.44;77.17;102768.69;5080186;28;20482;-74
2023/04/08 05:11:22;;;;;;;;;;;;;;;1.46;76.05;102758.16;5062012;28;20360;-72
2023/04/08 05:13:50;;;;;;;;;;;;;;;1.49;76.27;102751.03;5079283;28;19919;-74
2023/04/08 05:16:16;;;;;;;;;;;;;;;1.56;76.59;102756.91;5074360;28;19912;-75
2023/04/08 05:18:44;;;;;;;;;;;;;;;1.61;75.55;102746.22;5080488;28;19919;-74
2023/04/08 05:21:10;;;;;;;;;;;;;;;1.63;74.25;102754.91;5064762;28;19912;-73
2023/04/08 05:23:35;;;;;;;;;;;;;;;1.69;73.36;102757.31;5078703;28;19944;-72
2023/04/08 05:26:00;;;;;;;;;;;;;;;1.75;73.39;102757.09;5063959;28;19935;-76
2023/04/08 05:28:26;;;;;;;;;;;;;;;1.81;73.10;102762.97;5059115;28;19913;-74
2023/04/08 05:30:52;;;;;;;;;;;;;;;1.87;73.65;102759.25;5077535;28;19913;-76
2023/04/08 05:33:17;;;;;;;;;;;;;;;1.97;73.13;102763.22;5048079;28;20308;-75
2023/04/08 05:35:43;;;;;;;;;;;;;;;2.04;72.85;102756.84;5064893;28;20425;-77
2023/04/08 05:38:12;;;;;;;;;;;;;;;2.08;72.73;102755.81;5030121;28;19913;-73
2023/04/08 05:40:37;;;;;;;;;;;;;;;2.14;72.12;102766.09;5031716;28;19923;-75
2023/04/08 05:43:04;;;;;;;;;;;;;;;2.18;72.15;102757.16;5052781;28;19952;-75
2023/04/08 05:45:30;;;;;;;;;;;;;;;2.23;71.79;102762.22;5038189;28;19912;-76
2023/04/08 05:47:55;;;;;;;;;;;;;;;2.31;72.06;102751.41;5054797;28;20378;-75
2023/04/08 05:50:21;;;;;;;;;;;;;;;2.37;71.25;102749.41;5038177;28;19912;-74
2023/04/08 05:52:47;;;;;;;;;;;;;;;2.41;70.71;102755.41;5054598;28;20295;-77
2023/04/08 05:55:13;;;;;;;;;;;;;;;2.47;70.91;102757.78;5074471;28;20322;-75
2023/04/08 05:57:40;;;;;;;;;;;;;;;2.53;70.18;102754.03;5056022;28;19917;-73
2023/04/08 06:00:07;;;;;;;;;;;;;;;2.61;69.76;102755.47;5055090;28;20272;-75
2023/04/08 06:02:33;;;;;;;;;;;;;;;2.64;69.89;102755.34;5037885;28;19928;-75
2023/04/08 06:04:58;;;;;;;;;;;;;;;2.71;69.98;102756.78;5040019;28;19962;-74
2023/04/08 06:07:24;;;;;;;;;;;;;;;2.73;69.69;102752.31;5072157;28;19920;-74
2023/04/08 06:09:50;;;;;;;;;;;;;;;2.84;70.33;102756.25;5074829;28;19945;-72
2023/04/08 06:12:16;;;;;;;;;;;;;;;2.92;68.87;102755.03;5077543;28;19916;-75
2023/04/08 06:14:52;;;;;;;;;;;;;;;2.96;68.01;102745.25;5042685;28;19912;-74
2023/04/08 06:17:28;;;;;;;;;;;;;;;3.06;68.43;102751.81;5090676;28;20007;-74
2023/04/08 06:19:53;;;;;;;;;;;;;;;3.13;68.42;102753.25;5068019;28;19939;-73
2023/04/08 06:22:19;;;;;;;;;;;;;;;3.22;67.85;102752.03;5085865;28;19913;-75
2023/04/08 06:24:48;;;;;;;;;;;;;;;3.29;67.36;102759.59;5050811;28;20014;-74
2023/04/08 06:27:14;;;;;;;;;;;;;;;3.36;67.09;102750.47;5085626;28;19919;-71
2023/04/08 06:29:40;;;;;;;;;;;;;;;3.37;66.57;102757.47;5083082;28;19912;-75
2023/04/08 06:32:05;;;;;;;;;;;;;;;3.47;66.86;102754.41;5087302;28;19924;-76
2023/04/08 06:34:34;;;;;;;;;;;;;;;3.55;66.87;102754.94;5067889;28;19976;-75
2023/04/08 06:36:59;;;;;;;;;;;;;;;3.60;65.45;102747.69;5083431;28;19959;-73
2023/04/08 06:39:25;;;;;;;;;;;;;;;3.70;66.80;102744.56;5084173;28;19916;-74
2023/04/08 06:41:51;;;;;;;;;;;;;;;3.80;66.04;102750.28;5084648;28;19920;-73
2023/04/08 06:44:19;;;;;;;;;;;;;;;3.88;65.17;102748.13;5082397;28;19919;-77
2023/04/08 06:46:45;;;;;;;;;;;;;;;3.94;65.46;102737.31;5052701;28;19971;-74
2023/04/08 06:49:11;;;;;;;;;;;;;;;4.00;65.29;102742.28;5086885;28;19919;-74
2023/04/08 06:51:39;;;;;;;;;;;;;;;4.06;64.99;102740.31;5086663;28;19917;-80
2023/04/08 06:54:04;;;;;;;;;;;;;;;4.14;64.30;102738.16;5085755;28;19916;-70
2023/04/08 06:56:30;;;;;;;;;;;;;;;4.22;64.78;102742.13;5082604;28;19913;-71
2023/04/08 06:59:05;;;;;;;;;;;;;;;4.34;64.47;102753.91;5044616;28;20064;-71
2023/04/08 07:01:36;;;;;;;;;;;;;;;4.43;64.73;102745.53;5034776;28;19928;-74
2023/04/08 07:04:11;;;;;;;;;;;;;;;4.48;62.94;102743.50;5032991;28;19917;-77
2023/04/08 07:06:37;;;;;;;;;;;;;;;4.56;63.17;102743.97;5065480;28;19927;-71
2023/04/08 07:09:03;;;;;;;;;;;;;;;4.60;62.52;102748.19;5055442;28;19913;-72
2023/04/08 07:11:32;;;;;;;;;;;;;;;4.70;63.30;102747.75;5067769;28;19913;-73
2023/04/08 07:13:58;;;;;;;;;;;;;;;4.78;63.51;102737.66;5052787;28;19919;-72
2023/04/08 07:16:25;;;;;;;;;;;;;;;4.88;63.54;102738.88;5037136;28;19924;-76
2023/04/08 07:18:51;;;;;;;;;;;;;;;4.97;62.13;102741.94;5040151;28;19912;-73
2023/04/08 07:21:17;;;;;;;;;;;;;;;5.05;61.21;102738.03;5085823;28;19913;-74
2023/04/08 07:23:42;;;;;;;;;;;;;;;5.12;61.49;102734.13;5055131;28;20360;-69
2023/04/08 07:26:08;;;;;;;;;;;;;;;5.17;60.30;102740.88;5049614;28;19920;-72
2023/04/08 07:28:35;;;;;;;;;;;;;;;5.26;61.01;102740.44;5046292;28;19912;-72
2023/04/08 07:31:14;;;;;;;;;;;;;;;5.32;58.30;102735.75;5045714;28;19967;-72
2023/04/08 07:33:41;;;;;;;;;;;;;;;5.44;59.23;102735.09;5046786;28;19923;-71
2023/04/08 07:36:08;;;;;;;;;;;;;;;5.54;59.89;102733.69;5046067;28;20380;-72
2023/04/08 07:38:39;;;;;;;;;;;;;;;5.60;59.42;102730.72;5025544;28;19951;-70
2023/04/08 07:41:06;;;;;;;;;;;;;;;5.68;58.68;102733.78;5062007;28;19932;-74
2023/04/08 07:43:38;;;;;;;;;;;;;;;5.76;57.42;102742.16;5047749;28;19946;-71
2023/04/08 07:46:07;;;;;;;;;;;;;;;5.85;57.39;102736.38;5042689;28;20284;-72
2023/04/08 07:48:33;;;;;;;;;;;;;;;5.93;57.98;102730.69;5038594;28;19913;-75
2023/04/08 07:51:06;;;;;;;;;;;;;;;6.02;58.14;102731.97;5082434;28;19967;-73
2023/04/08 07:53:33;;;;;;;;;;;;;;;6.09;56.21;102736.00;5062030;28;19918;-73
2023/04/08 07:55:59;;;;;;;;;;;;;;;6.19;54.79;102729.25;5040370;28;19912;-75
2023/04/08 07:58:25;;;;;;;;;;;;;;;6.27;54.08;102729.66;5039642;28;19924;-73
2023/04/08 08:00:51;;;;;;;;;;;;;;;6.37;55.39;102727.38;5057432;28;19921;-75
2023/04/08 08:03:19;;;;;;;;;;;;;;;6.47;56.23;102725.88;5036127;28;19924;-72
2023/04/08 08:05:45;;;;;;;;;;;;;;;6.53;54.09;102723.72;5069420;28;19928;-70
2023/04/08 08:08:10;;;;;;;;;;;;;;;6.60;53.85;102728.66;5053785;28;19913;-72
2023/04/08 08:10:37;;;;;;;;;;;;;;;6.63;52.51;102728.50;5028416;28;20004;-72
2023/04/08 08:13:03;;;;;;;;;;;;;;;6.69;53.59;102729.00;5032437;28;19914;-72
2023/04/08 08:15:29;;;;;;;;;;;;;;;6.80;51.38;102729.22;5032383;28;20284;-71
2023/04/08 08:17:54;;;;;;;;;;;;;;;6.92;51.83;102724.13;5033698;28;20003;-73
2023/04/08 08:20:20;;;;;;;;;;;;;;;6.95;50.41;102727.47;5033008;28;20012;-69
2023/04/08 08:22:46;;;;;;;;;;;;;;;7.02;50.99;102730.59;5033908;28;20003;-73
2023/04/08 08:25:31;;;;;;;;;;;;;;;;;;;;;
2023/04/08 08:28:04;;;;;;;;;;;;;;;7.20;51.00;102725.97;5032306;28;19913;-75
2023/04/08 08:30:30;;;;;;;;;;;;;;;7.27;51.15;102720.25;5016224;28;19913;-74
2023/04/08 08:32:58;;;;;;;;;;;;;;;7.37;51.12;102715.22;5016325;28;19967;-74
2023/04/08 08:35:24;;;;;;;;;;;;;;;7.42;49.95;102721.09;5017533;28;19971;-68
2023/04/08 08:37:50;;;;;;;;;;;;;;;7.45;48.67;102711.13;5034783;28;19913;-69
2023/04/08 08:40:15;;;;;;;;;;;;;;;7.52;48.96;102719.59;5032324;28;20372;-70
2023/04/08 08:42:41;;;;;;;;;;;;;;;7.59;48.19;102720.91;5033270;28;19952;-69
2023/04/08 08:45:07;;;;;;;;;;;;;;;7.66;50.47;102724.03;5033368;28;19919;-73
2023/04/08 08:47:32;;;;;;;;;;;;;;;7.68;47.86;102712.38;5032929;28;19913;-71
2023/04/08 08:49:58;;;;;;;;;;;;;;;7.76;47.98;102718.03;5033532;28;19913;-72
2023/04/08 08:52:23;;;;;;;;;;;;;;;7.86;47.92;102712.16;5033234;28;19924;-72
2023/04/08 08:54:56;;;;;;;;;;;;;;;7.92;48.51;102709.13;5033495;28;19913;-74
2023/04/08 08:57:21;;;;;;;;;;;;;;;8.07;46.94;102702.81;5032932;28;20280;-72
2023/04/08 08:59:47;;;;;;;;;;;;;;;8.20;46.99;102701.06;5033113;28;19913;-69
2023/04/08 09:02:26;;;;;;;;;;;;;;;8.30;47.03;102707.47;5049643;28;19954;-72
2023/04/08 09:04:56;;;;;;;;;;;;;;;8.40;46.72;102707.78;5073219;28;19917;-69
2023/04/08 09:07:23;;;;;;;;;;;;;;;8.40;47.72;102707.78;5072914;28;19913;-70
2023/04/08 09:09:49;;;;;;;;;;;;;;;8.37;45.92;102708.81;5072789;28;19912;-72
2023/04/08 09:12:14;;;;;;;;;;;;;;;8.42;46.03;102705.88;5073379;28;19917;-70
2023/04/08 09:14:40;;;;;;;;;;;;;;;8.46;47.06;102706.53;5074318;28;20400;-71
2023/04/08 09:17:05;;;;;;;;;;;;;;;8.48;45.81;102699.31;5073281;28;19912;-72
2023/04/08 09:19:30;;;;;;;;;;;;;;;8.51;46.76;102696.44;5072961;28;19913;-71
2023/04/08 09:22:06;;;;;;;;;;;;;;;8.56;46.46;102695.16;5072374;28;19912;-71
2023/04/08 09:24:31;;;;;;;;;;;;;;;8.67;45.73;102697.09;5072458;28;19912;-69
2023/04/08 09:26:56;;;;;;;;;;;;;;;8.80;47.59;102697.13;5072274;28;19935;-70
2023/04/08 09:29:22;;;;;;;;;;;;;;;8.88;44.99;102697.47;5072727;28;20002;-70
2023/04/08 09:31:52;;;;;;;;;;;;;;;8.96;46.35;102688.03;5072857;28;20364;-71
2023/04/08 09:34:22;;;;;;;;;;;;;;;8.99;45.82;102690.47;5054922;28;19916;-74
2023/04/08 09:36:50;;;;;;;;;;;;;;;9.06;44.98;102690.06;5072723;28;19912;-72
2023/04/08 09:39:16;;;;;;;;;;;;;;;9.11;44.86;102688.78;5072412;28;20376;-69
2023/04/08 09:41:42;;;;;;;;;;;;;;;9.09;43.53;102687.19;5072213;28;20078;-70
2023/04/08 09:44:08;;;;;;;;;;;;;;;9.11;44.68;102679.94;5040721;28;19913;-72
2023/04/08 09:46:53;;;;;;;;;;;;;;;9.21;43.78;102681.00;5073163;28;19923;-73
2023/04/08 09:49:33;;;;;;;;;;;;;;;9.29;42.49;102678.69;5041704;28;20300;-73
2023/04/08 09:52:05;;;;;;;;;;;;;;;9.36;42.72;102676.44;5041687;28;19913;-72
2023/04/08 09:54:37;;;;;;;;;;;;;;;9.29;42.66;102681.34;5076037;28;19912;-71
2023/04/08 09:57:04;;;;;;;;;;;;;;;9.27;42.90;102672.63;5076084;28;19925;-69
2023/04/08 09:59:32;;;;;;;;;;;;;;;9.35;44.75;102672.91;5066529;28;20364;-70
2023/04/08 10:02:04;;;;;;;;;;;;;;;9.40;43.40;102670.78;5065084;28;19923;-72
2023/04/08 10:04:34;;;;;;;;;;;;;;;9.43;41.22;102670.56;5034543;28;19931;-68
2023/04/08 10:07:03;;;;;;;;;;;;;;;9.40;42.02;102670.78;5049406;28;19920;-73
2023/04/08 10:09:29;;;;;;;;;;;;;;;9.45;42.87;102665.97;5049655;28;20035;-72
2023/04/08 10:11:54;;;;;;;;;;;;;;;9.54;43.70;102676.00;5023418;28;20367;-70
2023/04/08 10:14:21;;;;;;;;;;;;;;;9.62;42.71;102668.31;5055604;28;20406;-70
2023/04/08 10:16:47;;;;;;;;;;;;;;;9.68;44.08;102674.13;5041482;28;19939;-73
2023/04/08 10:19:31;;;;;;;;;;;;;;;9.69;42.66;102668.69;5072924;28;19918;-73
2023/04/08 10:22:43;;;;;;;;;;;;;;;9.61;41.70;102674.59;5072865;28;19921;-72
2023/04/08 10:25:15;;;;;;;;;;;;;;;9.63;41.71;102671.81;5052518;28;20293;-71
2023/04/08 10:27:41;;;;;;;;;;;;;;;9.68;42.42;102668.81;5073957;28;20369;-71
2023/04/08 10:30:25;;;;;;;;;;;;;;;9.63;40.28;102664.69;5056087;28;19919;-71
2023/04/08 10:32:51;;;;;;;;;;;;;;;9.49;40.74;102671.94;5074406;28;19919;-71
2023/04/08 10:35:17;;;;;;;;;;;;;;;9.38;40.33;102663.88;5073920;28;19912;-72
2023/04/08 10:37:43;;;;;;;;;;;;;;;9.38;39.94;102663.88;5040620;28;19927;-70
2023/04/08 10:40:18;;;;;;;;;;;;;;;9.38;39.70;102654.09;5074904;28;19913;-74
2023/04/08 10:42:43;;;;;;;;;;;;;;;9.42;40.49;102663.53;5057383;28;20256;-71
2023/04/08 10:45:09;;;;;;;;;;;;;;;9.49;40.64;102656.81;5057213;28;19913;-71
2023/04/08 10:47:35;;;;;;;;;;;;;;;9.58;40.83;102656.19;5057235;28;20249;-70
2023/04/08 10:50:11;;;;;;;;;;;;;;;9.61;40.78;102657.78;5075190;28;20007;-71
2023/04/08 10:52:45;;;;;;;;;;;;;;;9.67;41.04;102653.81;5056838;28;20427;-74
2023/04/08 10:55:11;;;;;;;;;;;;;;;9.75;40.69;102648.78;5040238;28;19913;-69
2023/04/08 10:57:36;;;;;;;;;;;;;;;9.87;41.08;102647.91;5056808;28;19969;-70
2023/04/08 11:00:04;;;;;;;;;;;;;;;9.95;41.61;102648.19;5057014;28;19955;-70
2023/04/08 11:02:33;;;;;;;;;;;;;;;9.99;41.80;102647.00;5053674;28;19962;-70
2023/04/08 11:04:59;;;;;;;;;;;;;;;10.12;42.36;102650.47;5054896;28;19961;-71
2023/04/08 11:07:25;;;;;;;;;;;;;;;10.16;40.57;102640.44;5054811;28;20027;-72
2023/04/08 11:09:51;;;;;;;;;;;;;;;10.17;40.15;102640.31;5054883;28;19912;-69
2023/04/08 11:12:17;;;;;;;;;;;;;;;10.14;39.45;102640.56;5055360;28;19913;-71
2023/04/08 11:14:43;;;;;;;;;;;;;;;10.15;40.46;102644.06;5056441;28;20415;-71
2023/04/08 11:17:11;;;;;;;;;;;;;;;10.13;39.92;102644.19;5054193;28;19913;-70
2023/04/08 11:19:38;;;;;;;;;;;;;;;10.06;39.16;102640.25;5036812;28;19971;-69
2023/04/08 11:22:06;;;;;;;;;;;;;;;10.10;39.48;102639.06;5036597;28;19913;-69
2023/04/08 11:24:32;;;;;;;;;;;;;;;10.11;38.96;102640.75;5054719;28;20007;-70
2023/04/08 11:26:58;;;;;;;;;;;;;;;10.09;40.33;102633.84;5054525;28;19944;-70
2023/04/08 11:29:23;;;;;;;;;;;;;;;10.04;39.08;102633.34;5053558;28;19913;-71
2023/04/08 11:31:50;;;;;;;;;;;;;;;10.13;39.40;102630.88;5054474;28;19913;-72
2023/04/08 11:34:21;;;;;;;;;;;;;;;10.16;39.98;102630.63;5054330;28;19917;-68
2023/04/08 11:36:46;;;;;;;;;;;;;;;10.21;40.25;102628.50;5054562;28;19920;-69
2023/04/08 11:39:11;;;;;;;;;;;;;;;10.27;40.69;102634.31;5054866;28;19912;-70
2023/04/08 11:41:40;;;;;;;;;;;;;;;10.34;40.91;102627.56;5054602;28;19916;-69
2023/04/08 11:44:06;;;;;;;;;;;;;;;10.35;39.54;102624.78;5053056;28;20280;-70
2023/04/08 11:46:32;;;;;;;;;;;;;;;10.43;40.36;102616.25;5054151;28;19940;-72
2023/04/08 11:49:07;;;;;;;;;;;;;;;10.46;39.39;102616.00;5053895;28;20003;-69
2023/04/08 11:51:34;;;;;;;;;;;;;;;10.50;39.72;102612.13;5053935;28;19919;-70
2023/04/08 11:54:01;;;;;;;;;;;;;;;10.44;40.13;102612.63;5054133;28;19966;-69
2023/04/08 11:56:29;;;;;;;;;;;;;;;10.41;39.80;102613.69;5053743;28;20035;-70
2023/04/08 11:58:54;;;;;;;;;;;;;;;10.40;40.38;102605.78;5053631;28;19947;-70
2023/04/08 12:01:20;;;;;;;;;;;;;;;10.40;39.12;102600.47;5054325;28;19912;-69
2023/04/08 12:04:13;;;;;;;;;;;;;;;10.34;39.35;102608.94;5073554;28;19922;-70
2023/04/08 12:06:38;;;;;;;;;;;;;;;10.36;39.92;102604.34;5068196;28;19912;-69
2023/04/08 12:09:03;;;;;;;;;;;;;;;10.38;40.16;102597.06;5073830;28;20363;-71
2023/04/08 12:11:29;;;;;;;;;;;;;;;10.45;41.00;102599.19;5073551;28;19942;-70
2023/04/08 12:13:54;;;;;;;;;;;;;;;10.43;38.74;102598.44;5059316;28;19919;-70
2023/04/08 12:16:20;;;;;;;;;;;;;;;10.48;38.84;102592.75;5074499;28;19916;-69
2023/04/08 12:18:45;;;;;;;;;;;;;;;10.56;39.58;102590.34;5056249;28;20288;-69
2023/04/08 12:21:11;;;;;;;;;;;;;;;10.65;39.94;102591.44;5074584;28;19965;-69
2023/04/08 12:23:36;;;;;;;;;;;;;;;10.72;40.79;102584.69;5074953;28;20371;-72
2023/04/08 12:26:02;;;;;;;;;;;;;;;10.77;39.20;102594.03;5074365;28;19975;-72
2023/04/08 12:28:28;;;;;;;;;;;;;;;10.75;39.21;102590.63;5073855;28;19919;-72
2023/04/08 12:30:53;;;;;;;;;;;;;;;10.71;38.77;102599.00;5073800;28;19952;-72
2023/04/08 12:33:18;;;;;;;;;;;;;;;10.69;39.88;102591.09;5055837;28;19912;-69
2023/04/08 12:35:44;;;;;;;;;;;;;;;10.70;39.76;102584.81;5074870;28;19943;-70
2023/04/08 12:38:09;;;;;;;;;;;;;;;10.74;39.73;102588.94;5075859;28;19912;-72
2023/04/08 12:40:35;;;;;;;;;;;;;;;10.60;39.07;102585.63;5057423;28;19920;-70
2023/04/08 12:43:00;;;;;;;;;;;;;;;10.55;39.31;102584.19;5057326;28;20391;-71
2023/04/08 12:45:25;;;;;;;;;;;;;;;10.56;39.19;102571.69;5075687;28;19995;-70